Time;durP1;ratioP1;P1;durP2;ratioP2;P2;SDS_P1;SDS_P2;PMS_P1;PMS_P2;Temp;Humidity;BMP_temperature;BMP_pressure;BME280_temperature;BME280_humidity;BME280_pressure;Samples;Min_cycle;Max_cycle;Signal;HPM_P1;HPM_P2
2022/11/10 00:02:19;;;;;;;;;0.00;0.00;;;;;;;;4759125;30;8880;-94
2022/11/10 00:04:45;;;;;;;;;3.67;3.67;;;;;;;;4765751;30;8865;-94
2022/11/10 00:07:10;;;;;;;;;0.00;0.00;;;;;;;;4762558;30;8866;-94
2022/11/10 00:09:35;;;;;;;;;3.00;3.00;;;;;;;;4752193;30;8867;-95
2022/11/10 00:12:00;;;;;;;;;0.00;0.00;;;;;;;;4757752;30;8899;-95
2022/11/10 00:17:10;;;;;;;;;0.00;0.00;;;;;;;;4752616;30;8842;-94
2022/11/10 00:19:35;;;;;;;;;0.00;0.00;;;;;;;;4742194;30;8898;-94
2022/11/10 00:22:00;;;;;;;;;0.00;0.00;;;;;;;;4754457;30;9666;-94
2022/11/10 00:24:26;;;;;;;;;0.00;0.00;;;;;;;;4754925;30;8967;-93
2022/11/10 00:26:51;;;;;;;;;0.00;0.00;;;;;;;;4737065;30;8887;-93
2022/11/10 00:29:16;;;;;;;;;8.00;8.00;;;;;;;;4759021;30;8855;-94
2022/11/10 00:31:42;;;;;;;;;0.00;0.00;;;;;;;;4751174;30;8870;-94
2022/11/10 00:34:10;;;;;;;;;0.00;0.00;;;;;;;;4750748;30;8897;-94
2022/11/10 00:36:36;;;;;;;;;0.00;0.00;;;;;;;;4736429;30;8869;-94
2022/11/10 00:39:01;;;;;;;;;0.00;0.00;;;;;;;;4750947;30;8889;-94
2022/11/10 00:41:26;;;;;;;;;0.00;0.00;;;;;;;;4750643;30;8885;-94
2022/11/10 00:43:52;;;;;;;;;0.00;0.00;;;;;;;;4752849;30;9665;-94
2022/11/10 00:46:17;;;;;;;;;0.00;0.00;;;;;;;;4754405;29;8895;-94
2022/11/10 00:48:42;;;;;;;;;0.00;0.00;;;;;;;;4764706;29;8888;-94
2022/11/10 00:51:13;;;;;;;;;0.00;0.00;;;;;;;;4765056;29;8893;-95
2022/11/10 00:53:39;;;;;;;;;0.00;0.00;;;;;;;;4763014;29;8802;-94
2022/11/10 00:56:04;;;;;;;;;0.00;0.00;;;;;;;;4757708;29;8872;-94
2022/11/10 00:58:29;;;;;;;;;0.00;0.00;;;;;;;;4756804;29;8874;-94
2022/11/10 01:01:02;;;;;;;;;0.00;0.00;;;;;;;;4762064;29;8893;-93
2022/11/10 01:03:27;;;;;;;;;0.00;0.00;;;;;;;;4767125;29;9005;-94
2022/11/10 01:05:52;;;;;;;;;0.00;0.00;;;;;;;;4772584;29;8889;-95
2022/11/10 01:08:17;;;;;;;;;0.00;0.00;;;;;;;;4781124;29;8873;-94
2022/11/10 01:10:43;;;;;;;;;0.00;0.00;;;;;;;;4766919;30;8856;-95
2022/11/10 01:13:08;;;;;;;;;0.00;0.00;;;;;;;;4777273;29;8887;-95
2022/11/10 01:15:37;;;;;;;;;0.00;0.00;;;;;;;;4761908;30;8916;-95
2022/11/10 01:18:02;;;;;;;;;0.00;0.00;;;;;;;;4769029;30;8817;-94
2022/11/10 01:20:27;;;;;;;;;0.00;0.00;;;;;;;;4773358;29;8878;-93
2022/11/10 01:22:52;;;;;;;;;0.00;0.00;;;;;;;;4759259;29;8907;-94
2022/11/10 01:25:18;;;;;;;;;0.00;0.00;;;;;;;;4760610;30;8912;-94
2022/11/10 01:27:43;;;;;;;;;0.00;0.00;;;;;;;;4757493;29;9622;-94
2022/11/10 01:30:08;;;;;;;;;0.00;0.00;;;;;;;;4764398;29;8868;-93
2022/11/10 01:32:34;;;;;;;;;0.00;0.00;;;;;;;;4752657;29;8994;-94
2022/11/10 01:34:59;;;;;;;;;0.00;0.00;;;;;;;;4762146;29;8917;-94
2022/11/10 01:37:24;;;;;;;;;0.00;0.00;;;;;;;;4760646;29;8858;-93
2022/11/10 01:39:49;;;;;;;;;0.00;0.00;;;;;;;;4761370;29;8945;-94
2022/11/10 01:42:14;;;;;;;;;0.00;0.00;;;;;;;;4765939;29;8874;-94
2022/11/10 01:44:40;;;;;;;;;0.00;0.00;;;;;;;;4755473;29;8990;-94
2022/11/10 01:47:05;;;;;;;;;0.00;0.00;;;;;;;;4783878;29;8849;-94
2022/11/10 01:49:32;;;;;;;;;0.00;0.00;;;;;;;;4763860;29;8893;-93
2022/11/10 01:52:05;;;;;;;;;0.00;0.00;;;;;;;;4763127;29;8875;-93
2022/11/10 01:54:32;;;;;;;;;0.00;0.00;;;;;;;;4756359;29;8980;-94
2022/11/10 01:57:01;;;;;;;;;0.00;0.00;;;;;;;;4763192;29;8857;-94
2022/11/10 01:59:27;;;;;;;;;0.00;0.00;;;;;;;;4760115;29;8848;-94
2022/11/10 02:01:56;;;;;;;;;3.00;3.00;;;;;;;;4756797;30;8870;-93
2022/11/10 02:04:21;;;;;;;;;0.00;0.00;;;;;;;;4754962;29;8967;-94
2022/11/10 02:06:47;;;;;;;;;0.00;0.00;;;;;;;;4756643;29;8869;-94
2022/11/10 02:09:12;;;;;;;;;4.00;4.00;;;;;;;;4752865;29;8968;-94
2022/11/10 02:11:39;;;;;;;;;0.00;0.00;;;;;;;;4751988;30;8897;-94
2022/11/10 02:14:05;;;;;;;;;0.00;0.00;;;;;;;;4759467;29;8880;-95
2022/11/10 02:16:31;;;;;;;;;0.00;0.00;;;;;;;;4753285;30;8884;-94
2022/11/10 02:18:56;;;;;;;;;0.00;0.00;;;;;;;;4758766;29;8940;-94
2022/11/10 02:21:21;;;;;;;;;0.00;0.00;;;;;;;;4765399;30;8911;-94
2022/11/10 02:23:52;;;;;;;;;3.00;3.00;;;;;;;;4767217;29;8901;-94
2022/11/10 02:26:25;;;;;;;;;0.00;0.00;;;;;;;;4762257;30;9839;-95
2022/11/10 02:28:50;;;;;;;;;0.00;0.00;;;;;;;;4762193;29;8848;-93
2022/11/10 02:31:15;;;;;;;;;0.00;0.00;;;;;;;;4767911;29;8869;-94
2022/11/10 02:33:40;;;;;;;;;0.00;0.00;;;;;;;;4762547;29;8853;-94
2022/11/10 02:36:06;;;;;;;;;1.00;1.00;;;;;;;;4765043;29;8876;-93
2022/11/10 02:38:31;;;;;;;;;0.00;0.00;;;;;;;;4763669;30;8876;-95
2022/11/10 02:40:57;;;;;;;;;0.00;0.00;;;;;;;;4760385;29;9048;-94
2022/11/10 02:43:22;;;;;;;;;0.00;0.00;;;;;;;;4754193;29;8883;-94
2022/11/10 02:45:47;;;;;;;;;0.00;0.00;;;;;;;;4758571;30;9236;-93
2022/11/10 02:48:13;;;;;;;;;0.00;0.00;;;;;;;;4754230;30;8872;-94
2022/11/10 02:50:38;;;;;;;;;0.00;0.00;;;;;;;;4761721;29;8868;-94
2022/11/10 02:53:04;;;;;;;;;0.00;0.00;;;;;;;;4756634;30;8884;-94
2022/11/10 02:55:29;;;;;;;;;0.00;0.00;;;;;;;;4762023;30;8966;-94
2022/11/10 02:57:55;;;;;;;;;6.00;6.00;;;;;;;;4755323;29;9617;-93
2022/11/10 03:00:20;;;;;;;;;0.00;0.00;;;;;;;;4762987;30;8954;-94
2022/11/10 03:02:45;;;;;;;;;0.00;0.00;;;;;;;;4754872;29;8975;-94
2022/11/10 03:05:11;;;;;;;;;0.00;0.00;;;;;;;;4754602;30;8861;-94
2022/11/10 03:07:37;;;;;;;;;10.00;10.00;;;;;;;;4755259;29;9071;-94
2022/11/10 03:10:02;;;;;;;;;0.00;0.00;;;;;;;;4756296;29;8958;-94
2022/11/10 03:12:28;;;;;;;;;0.00;0.00;;;;;;;;4775639;29;8864;-94
2022/11/10 03:14:53;;;;;;;;;0.00;0.00;;;;;;;;4761953;29;8887;-94
2022/11/10 03:17:18;;;;;;;;;1.00;1.00;;;;;;;;4761501;30;8888;-94
2022/11/10 03:19:43;;;;;;;;;0.00;0.00;;;;;;;;4758942;29;8956;-94
2022/11/10 03:22:09;;;;;;;;;0.00;0.00;;;;;;;;4757611;29;8892;-94
2022/11/10 03:24:34;;;;;;;;;0.00;0.00;;;;;;;;4775409;29;8952;-94
2022/11/10 03:26:59;;;;;;;;;0.00;0.00;;;;;;;;4756229;29;8860;-95
2022/11/10 03:29:24;;;;;;;;;0.00;0.00;;;;;;;;4760852;29;8880;-94
2022/11/10 03:31:49;;;;;;;;;0.00;0.00;;;;;;;;4764913;29;8864;-94
2022/11/10 03:34:15;;;;;;;;;1.00;1.00;;;;;;;;4757281;29;8988;-92
2022/11/10 03:36:40;;;;;;;;;0.00;0.00;;;;;;;;4759836;29;8864;-92
2022/11/10 03:39:05;;;;;;;;;2.00;2.00;;;;;;;;4771710;30;8949;-95
2022/11/10 03:41:30;;;;;;;;;0.00;0.00;;;;;;;;4762674;29;8880;-93
2022/11/10 03:43:56;;;;;;;;;0.00;0.00;;;;;;;;4766397;30;8877;-93
2022/11/10 03:46:21;;;;;;;;;0.00;0.00;;;;;;;;4762690;30;8904;-94
2022/11/10 03:48:46;;;;;;;;;0.00;0.00;;;;;;;;4763311;30;9226;-94
2022/11/10 03:51:12;;;;;;;;;2.00;2.00;;;;;;;;4762888;30;8890;-94
2022/11/10 03:53:37;;;;;;;;;0.00;0.00;;;;;;;;4762555;30;8873;-94
2022/11/10 03:56:03;;;;;;;;;0.00;0.00;;;;;;;;4760404;30;8891;-94
2022/11/10 03:58:28;;;;;;;;;0.00;0.00;;;;;;;;4757669;30;8872;-94
2022/11/10 04:00:54;;;;;;;;;0.00;0.00;;;;;;;;4752010;30;8885;-93
2022/11/10 04:03:19;;;;;;;;;0.00;0.00;;;;;;;;4757690;30;8948;-94
2022/11/10 04:15:40;;;;;;;;;77.25;65.50;;;;;;;;4754727;30;8869;-94
2022/11/10 04:16:41;;;;;;;;;0.00;0.00;;;;;;;;4760040;30;8818;-94
2022/11/10 04:19:07;;;;;;;;;0.00;0.00;;;;;;;;4757398;30;8933;-94
2022/11/10 04:21:32;;;;;;;;;1.00;1.00;;;;;;;;4754704;30;8919;-94
2022/11/10 04:23:57;;;;;;;;;0.00;0.00;;;;;;;;4751316;30;8850;-94
2022/11/10 04:26:28;;;;;;;;;0.00;0.00;;;;;;;;4756934;30;8874;-94
2022/11/10 04:28:58;;;;;;;;;0.00;0.00;;;;;;;;4758667;30;8879;-94
2022/11/10 04:31:24;;;;;;;;;0.00;0.00;;;;;;;;4753704;30;8877;-94
2022/11/10 04:33:50;;;;;;;;;0.00;0.00;;;;;;;;4751785;30;8849;-94
2022/11/10 04:36:16;;;;;;;;;0.00;0.00;;;;;;;;4750729;30;8960;-93
2022/11/10 04:38:42;;;;;;;;;0.00;0.00;;;;;;;;4754381;30;8853;-94
2022/11/10 04:41:07;;;;;;;;;0.00;0.00;;;;;;;;4749816;30;8908;-94
2022/11/10 04:43:32;;;;;;;;;0.00;0.00;;;;;;;;4753708;29;8855;-94
2022/11/10 04:45:58;;;;;;;;;1.00;1.00;;;;;;;;4761820;29;8919;-94
2022/11/10 04:48:24;;;;;;;;;0.00;0.00;;;;;;;;4762298;29;8972;-94
2022/11/10 04:50:49;;;;;;;;;0.00;0.00;;;;;;;;4761049;29;8883;-94
2022/11/10 04:53:15;;;;;;;;;0.00;0.00;;;;;;;;4763851;29;8909;-94
2022/11/10 04:55:43;;;;;;;;;9.00;9.00;;;;;;;;4760753;30;8880;-94
2022/11/10 04:58:09;;;;;;;;;0.00;0.00;;;;;;;;4762701;30;8831;-93
2022/11/10 05:00:34;;;;;;;;;0.00;0.00;;;;;;;;4760829;30;8951;-95
2022/11/10 05:03:00;;;;;;;;;0.00;0.00;;;;;;;;4781149;29;9172;-94
2022/11/10 05:05:26;;;;;;;;;0.00;0.00;;;;;;;;4765575;29;8842;-94
2022/11/10 05:07:51;;;;;;;;;0.00;0.00;;;;;;;;4763126;29;8906;-94
2022/11/10 05:10:16;;;;;;;;;0.00;0.00;;;;;;;;4776459;29;8899;-93
2022/11/10 05:12:42;;;;;;;;;0.00;0.00;;;;;;;;4765033;29;9640;-93
2022/11/10 05:15:08;;;;;;;;;0.00;0.00;;;;;;;;4767277;30;9038;-95
2022/11/10 05:17:33;;;;;;;;;0.00;0.00;;;;;;;;4753758;29;8963;-94
2022/11/10 05:19:58;;;;;;;;;0.00;0.00;;;;;;;;4758684;29;8876;-94
2022/11/10 05:22:23;;;;;;;;;0.00;0.00;;;;;;;;4765983;29;8873;-94
2022/11/10 05:24:49;;;;;;;;;0.00;0.00;;;;;;;;4762549;30;8868;-94
2022/11/10 05:27:14;;;;;;;;;0.00;0.00;;;;;;;;4755163;29;8883;-94
2022/11/10 05:29:39;;;;;;;;;0.00;0.00;;;;;;;;4765989;30;8887;-93
2022/11/10 05:32:04;;;;;;;;;0.00;0.00;;;;;;;;4760002;30;8868;-94
2022/11/10 05:34:30;;;;;;;;;0.00;0.00;;;;;;;;4753659;29;8929;-94
2022/11/10 05:36:55;;;;;;;;;0.00;0.00;;;;;;;;4759806;30;8883;-93
2022/11/10 05:39:20;;;;;;;;;0.00;0.00;;;;;;;;4753819;29;8975;-94
2022/11/10 05:41:45;;;;;;;;;0.00;0.00;;;;;;;;4763886;30;8890;-94
2022/11/10 05:44:11;;;;;;;;;0.00;0.00;;;;;;;;4756945;30;8875;-93
2022/11/10 05:46:36;;;;;;;;;9.00;9.00;;;;;;;;4753123;30;8868;-94
2022/11/10 05:49:01;;;;;;;;;0.00;0.00;;;;;;;;4756712;30;9054;-94
2022/11/10 05:51:27;;;;;;;;;0.00;0.00;;;;;;;;4767490;29;8858;-93
2022/11/10 05:53:52;;;;;;;;;0.00;0.00;;;;;;;;4765807;29;8861;-93
2022/11/10 05:56:17;;;;;;;;;0.00;0.00;;;;;;;;4763664;29;8885;-93
2022/11/10 05:58:42;;;;;;;;;0.00;0.00;;;;;;;;4771762;29;8878;-94
2022/11/10 06:01:08;;;;;;;;;0.00;0.00;;;;;;;;4768237;29;8860;-94
2022/11/10 06:03:33;;;;;;;;;0.00;0.00;;;;;;;;4752539;30;8872;-93
2022/11/10 06:05:58;;;;;;;;;0.00;0.00;;;;;;;;4757577;29;8890;-93
2022/11/10 06:08:23;;;;;;;;;0.00;0.00;;;;;;;;4760441;30;8886;-93
2022/11/10 06:10:49;;;;;;;;;0.00;0.00;;;;;;;;4763163;30;9237;-94
2022/11/10 06:13:14;;;;;;;;;0.00;0.00;;;;;;;;4758072;30;8907;-94
2022/11/10 06:15:39;;;;;;;;;0.00;0.00;;;;;;;;4764279;29;8963;-94
2022/11/10 06:18:05;;;;;;;;;1.33;1.33;;;;;;;;4760143;30;8868;-94
2022/11/10 06:20:30;;;;;;;;;0.00;0.00;;;;;;;;4759898;30;8871;-93
2022/11/10 06:22:57;;;;;;;;;0.00;0.00;;;;;;;;4766448;29;8881;-94
2022/11/10 06:25:23;;;;;;;;;0.00;0.00;;;;;;;;4757719;30;8867;-93
2022/11/10 06:27:48;;;;;;;;;0.00;0.00;;;;;;;;4762101;29;8900;-94
2022/11/10 06:30:14;;;;;;;;;0.00;0.00;;;;;;;;4756687;30;8872;-94
2022/11/10 06:32:41;;;;;;;;;0.00;0.00;;;;;;;;4761687;29;8869;-92
2022/11/10 06:35:06;;;;;;;;;0.00;0.00;;;;;;;;4754899;30;8860;-94
2022/11/10 06:37:31;;;;;;;;;6.33;6.33;;;;;;;;4759687;29;8898;-93
2022/11/10 06:39:57;;;;;;;;;6.00;6.00;;;;;;;;4763456;30;8902;-94
2022/11/10 06:42:22;;;;;;;;;0.00;0.00;;;;;;;;4758184;29;9054;-94
2022/11/10 06:44:47;;;;;;;;;0.00;0.00;;;;;;;;4755858;30;8884;-93
2022/11/10 06:47:13;;;;;;;;;4.00;4.00;;;;;;;;4762958;30;8867;-93
2022/11/10 06:49:39;;;;;;;;;0.00;0.00;;;;;;;;4758299;29;9835;-95
2022/11/10 06:52:04;;;;;;;;;0.00;0.00;;;;;;;;4761960;30;8894;-94
2022/11/10 06:54:29;;;;;;;;;4.00;4.00;;;;;;;;4754621;29;8915;-94
2022/11/10 06:56:55;;;;;;;;;0.00;0.00;;;;;;;;4759795;29;8893;-93
2022/11/10 06:59:20;;;;;;;;;0.00;0.00;;;;;;;;4763727;29;8880;-94
2022/11/10 07:01:46;;;;;;;;;0.00;0.00;;;;;;;;4766402;30;8887;-94
2022/11/10 07:04:14;;;;;;;;;0.00;0.00;;;;;;;;4754827;29;8849;-94
2022/11/10 07:06:39;;;;;;;;;0.00;0.00;;;;;;;;4758158;29;8866;-94
2022/11/10 07:09:05;;;;;;;;;0.00;0.00;;;;;;;;4754506;30;8935;-94
2022/11/10 07:11:30;;;;;;;;;0.00;0.00;;;;;;;;4754950;30;8864;-93
2022/11/10 07:13:55;;;;;;;;;0.00;0.00;;;;;;;;4764343;29;8881;-94
2022/11/10 07:16:21;;;;;;;;;0.00;0.00;;;;;;;;4780606;29;8977;-95
2022/11/10 07:18:47;;;;;;;;;0.00;0.00;;;;;;;;4761275;30;8946;-93
2022/11/10 07:21:12;;;;;;;;;0.00;0.00;;;;;;;;4758049;29;9843;-93
2022/11/10 07:23:37;;;;;;;;;0.00;0.00;;;;;;;;4755779;30;8900;-93
2022/11/10 07:26:03;;;;;;;;;0.00;0.00;;;;;;;;4763182;29;8994;-93
2022/11/10 07:28:28;;;;;;;;;0.00;0.00;;;;;;;;4756155;29;8900;-89
2022/11/10 07:30:53;;;;;;;;;0.00;0.00;;;;;;;;4778880;29;8900;-91
2022/11/10 07:33:18;;;;;;;;;0.00;0.00;;;;;;;;4761514;29;8875;-96
2022/11/10 07:35:49;;;;;;;;;0.00;0.00;;;;;;;;4763296;30;9033;-94
2022/11/10 07:38:15;;;;;;;;;0.00;0.00;;;;;;;;4765851;30;8856;-88
2022/11/10 07:40:40;;;;;;;;;0.00;0.00;;;;;;;;4770644;29;8884;-87
2022/11/10 07:43:05;;;;;;;;;0.00;0.00;;;;;;;;4774365;29;8961;-93
2022/11/10 07:45:31;;;;;;;;;0.00;0.00;;;;;;;;4761688;30;8903;-91
2022/11/10 07:48:03;;;;;;;;;0.00;0.00;;;;;;;;4763156;29;8935;-94
2022/11/10 07:50:29;;;;;;;;;0.00;0.00;;;;;;;;4762528;30;8845;-96
2022/11/10 07:53:21;;;;;;;;;0.00;0.00;;;;;;;;4759230;29;8892;-95
2022/11/10 07:55:47;;;;;;;;;0.00;0.00;;;;;;;;4750959;30;8848;-96
2022/11/10 07:58:13;;;;;;;;;0.00;0.00;;;;;;;;4754945;30;8899;-94
2022/11/10 08:00:38;;;;;;;;;0.00;0.00;;;;;;;;4778224;29;8830;-95
2022/11/10 08:03:04;;;;;;;;;0.00;0.00;;;;;;;;4763680;30;8896;-95
2022/11/10 08:05:29;;;;;;;;;0.00;0.00;;;;;;;;4771676;29;8872;-95
2022/11/10 08:07:54;;;;;;;;;0.00;0.00;;;;;;;;4761246;29;8864;-95
2022/11/10 08:10:20;;;;;;;;;0.00;0.00;;;;;;;;4774762;29;8855;-94
2022/11/10 08:12:45;;;;;;;;;0.00;0.00;;;;;;;;4767107;29;8880;-95
2022/11/10 08:15:10;;;;;;;;;0.00;0.00;;;;;;;;4771777;29;8880;-95
2022/11/10 08:17:35;;;;;;;;;0.00;0.00;;;;;;;;4773395;29;9026;-96
2022/11/10 08:20:00;;;;;;;;;0.00;0.00;;;;;;;;4764666;29;8861;-96
2022/11/10 08:22:25;;;;;;;;;0.00;0.00;;;;;;;;4777863;29;8853;-94
2022/11/10 08:24:51;;;;;;;;;0.00;0.00;;;;;;;;4772215;29;8980;-96
2022/11/10 08:27:16;;;;;;;;;0.00;0.00;;;;;;;;4775960;29;8844;-93
2022/11/10 08:29:41;;;;;;;;;0.00;0.00;;;;;;;;4773774;29;9063;-95
2022/11/10 08:32:06;;;;;;;;;0.00;0.00;;;;;;;;4765422;30;9856;-95
2022/11/10 08:34:31;;;;;;;;;0.00;0.00;;;;;;;;4772050;29;9143;-95
2022/11/10 08:36:56;;;;;;;;;0.00;0.00;;;;;;;;4759673;29;8889;-95
2022/11/10 08:39:22;;;;;;;;;0.00;0.00;;;;;;;;4765408;29;9153;-95
2022/11/10 08:41:47;;;;;;;;;0.00;0.00;;;;;;;;4778545;29;9762;-95
2022/11/10 08:44:12;;;;;;;;;0.00;0.00;;;;;;;;4760952;30;9294;-96
2022/11/10 08:46:37;;;;;;;;;0.00;0.00;;;;;;;;4768544;30;8873;-96
2022/11/10 08:49:02;;;;;;;;;0.00;0.00;;;;;;;;4760370;30;8830;-95
2022/11/10 08:51:28;;;;;;;;;0.00;0.00;;;;;;;;4753357;30;8881;-96
2022/11/10 08:53:53;;;;;;;;;0.00;0.00;;;;;;;;4752300;30;9547;-96
2022/11/10 08:56:18;;;;;;;;;0.00;0.00;;;;;;;;4754417;30;8925;-95
2022/11/10 08:58:43;;;;;;;;;0.00;0.00;;;;;;;;4755688;30;8921;-96
2022/11/10 09:01:10;;;;;;;;;0.00;0.00;;;;;;;;4756144;30;8877;-95
2022/11/10 09:03:35;;;;;;;;;0.00;0.00;;;;;;;;4754745;30;8855;-96
2022/11/10 09:06:00;;;;;;;;;0.00;0.00;;;;;;;;4757227;30;8946;-96
2022/11/10 09:08:25;;;;;;;;;0.00;0.00;;;;;;;;4760035;30;8961;-96
2022/11/10 09:10:51;;;;;;;;;0.00;0.00;;;;;;;;4756621;30;8871;-95
2022/11/10 09:13:16;;;;;;;;;0.00;0.00;;;;;;;;4757337;30;9650;-96
2022/11/10 09:15:43;;;;;;;;;0.67;0.67;;;;;;;;4750683;30;8889;-95
2022/11/10 09:18:08;;;;;;;;;0.00;0.00;;;;;;;;4751965;30;8837;-96
2022/11/10 09:20:34;;;;;;;;;0.00;0.00;;;;;;;;4758820;30;8881;-96
2022/11/10 09:23:08;;;;;;;;;0.00;0.00;;;;;;;;4755211;30;8873;-93
2022/11/10 09:25:33;;;;;;;;;0.00;0.00;;;;;;;;4752503;30;8958;-93
2022/11/10 09:27:58;;;;;;;;;0.00;0.00;;;;;;;;4757795;30;8875;-93
2022/11/10 09:30:24;;;;;;;;;0.00;0.00;;;;;;;;4757518;30;9001;-93
2022/11/10 09:32:54;;;;;;;;;0.00;0.00;;;;;;;;4762593;30;9235;-93
2022/11/10 09:35:19;;;;;;;;;0.00;0.00;;;;;;;;4752677;30;8869;-94
2022/11/10 09:37:44;;;;;;;;;0.00;0.00;;;;;;;;4757043;30;8888;-94
2022/11/10 09:40:27;;;;;;;;;0.00;0.00;;;;;;;;4754923;30;8974;-94
2022/11/10 09:42:55;;;;;;;;;0.00;0.00;;;;;;;;4762037;30;8855;-94
2022/11/10 09:45:23;;;;;;;;;0.00;0.00;;;;;;;;4781701;29;10107;-94
2022/11/10 09:48:11;;;;;;;;;0.00;0.00;;;;;;;;4784699;29;8873;-95
2022/11/10 09:50:40;;;;;;;;;0.00;0.00;;;;;;;;4783033;29;8794;-95
2022/11/10 09:53:11;;;;;;;;;0.00;0.00;;;;;;;;4766778;29;8864;-94
2022/11/10 09:55:42;;;;;;;;;0.00;0.00;;;;;;;;4762520;29;8889;-95
2022/11/10 09:58:10;;;;;;;;;0.00;0.00;;;;;;;;4754798;30;8949;-93
2022/11/10 10:00:35;;;;;;;;;0.00;0.00;;;;;;;;4754716;30;8860;-96
2022/11/10 10:03:02;;;;;;;;;0.00;0.00;;;;;;;;4757040;29;8884;-95
2022/11/10 10:05:27;;;;;;;;;0.00;0.00;;;;;;;;4762231;30;8872;-94
2022/11/10 10:08:05;;;;;;;;;0.00;0.00;;;;;;;;4753715;29;9063;-95
2022/11/10 10:10:43;;;;;;;;;0.00;0.00;;;;;;;;4760089;30;9441;-94
2022/11/10 10:13:21;;;;;;;;;0.00;0.00;;;;;;;;4754407;30;8864;-95
2022/11/10 10:16:00;;;;;;;;;0.00;0.00;;;;;;;;4772200;29;8879;-95
2022/11/10 10:18:30;;;;;;;;;0.00;0.00;;;;;;;;4765580;30;8866;-94
2022/11/10 10:20:55;;;;;;;;;0.00;0.00;;;;;;;;4759678;29;8857;-94
2022/11/10 10:23:25;;;;;;;;;0.00;0.00;;;;;;;;4754096;29;8873;-94
2022/11/10 10:25:51;;;;;;;;;0.00;0.00;;;;;;;;4760550;29;8814;-94
2022/11/10 10:28:32;;;;;;;;;0.00;0.00;;;;;;;;4757214;30;8860;-95
2022/11/10 10:31:21;;;;;;;;;0.00;0.00;;;;;;;;4756377;29;8866;-94
2022/11/10 10:33:46;;;;;;;;;0.00;0.00;;;;;;;;4746820;29;11662;-94
2022/11/10 10:36:21;;;;;;;;;0.00;0.00;;;;;;;;4774603;29;8872;-94
2022/11/10 10:38:49;;;;;;;;;0.00;0.00;;;;;;;;4760280;30;8852;-94
2022/11/10 10:41:33;;;;;;;;;0.00;0.00;;;;;;;;4757680;29;8816;-95
2022/11/10 10:44:00;;;;;;;;;0.00;0.00;;;;;;;;4769012;29;8877;-95
2022/11/10 10:46:28;;;;;;;;;0.00;0.00;;;;;;;;4754648;30;8852;-95
2022/11/10 10:49:25;;;;;;;;;0.00;0.00;;;;;;;;4778104;29;8785;-96
2022/11/10 10:52:02;;;;;;;;;0.00;0.00;;;;;;;;4698036;30;8863;-96
2022/11/10 10:54:29;;;;;;;;;0.00;0.00;;;;;;;;4694842;30;8855;-95
2022/11/10 10:57:21;;;;;;;;;0.00;0.00;;;;;;;;4697064;30;11638;-95
2022/11/10 10:59:46;;;;;;;;;0.00;0.00;;;;;;;;4705385;30;11611;-96
2022/11/10 11:02:23;;;;;;;;;0.00;0.00;;;;;;;;4696866;30;8858;-95
2022/11/10 11:05:07;;;;;;;;;0.00;0.00;;;;;;;;4689928;30;8865;-96
2022/11/10 11:07:32;;;;;;;;;0.00;0.00;;;;;;;;4691847;30;9224;-96
2022/11/10 11:09:59;;;;;;;;;0.00;0.00;;;;;;;;4706329;30;8912;-96
2022/11/10 11:12:26;;;;;;;;;0.00;0.00;;;;;;;;4698194;30;8773;-92
2022/11/10 11:15:09;;;;;;;;;0.00;0.00;;;;;;;;4678667;30;9648;-91
2022/11/10 11:17:34;;;;;;;;;0.00;0.00;;;;;;;;4694338;30;8892;-91
2022/11/10 11:19:59;;;;;;;;;0.00;0.00;;;;;;;;4694700;30;11632;-91
2022/11/10 11:22:32;;;;;;;;;0.00;0.00;;;;;;;;4689739;30;9014;-90
2022/11/10 11:25:16;;;;;;;;;0.00;0.00;;;;;;;;4685347;30;8860;-91
2022/11/10 11:27:57;;;;;;;;;0.00;0.00;;;;;;;;4719129;29;11691;-90
2022/11/10 11:30:23;;;;;;;;;0.00;0.00;;;;;;;;4768908;29;11663;-93
2022/11/10 11:32:48;;;;;;;;;0.00;0.00;;;;;;;;4772869;29;11705;-91
2022/11/10 11:35:14;;;;;;;;;0.00;0.00;;;;;;;;4755583;29;11750;-91
2022/11/10 11:38:04;;;;;;;;;0.00;0.00;;;;;;;;4768707;29;10257;-91
2022/11/10 11:40:39;;;;;;;;;0.00;0.00;;;;;;;;4752691;29;8890;-91
2022/11/10 11:43:23;;;;;;;;;0.00;0.00;;;;;;;;4756627;29;11698;-91
2022/11/10 11:45:59;;;;;;;;;0.00;0.00;;;;;;;;4761158;29;8866;-91
2022/11/10 11:48:34;;;;;;;;;0.00;0.00;;;;;;;;4771683;29;8916;-90
2022/11/10 11:51:04;;;;;;;;;0.00;0.00;;;;;;;;4760902;29;11712;-90
2022/11/10 11:53:29;;;;;;;;;0.00;0.00;;;;;;;;4770860;29;8838;-91
2022/11/10 11:56:03;;;;;;;;;0.00;0.00;;;;;;;;4756655;29;11756;-93
2022/11/10 11:58:45;;;;;;;;;0.00;0.00;;;;;;;;4769165;29;10224;-90
2022/11/10 12:01:22;;;;;;;;;0.00;0.00;;;;;;;;4762268;29;8934;-92
2022/11/10 12:04:10;;;;;;;;;0.00;0.00;;;;;;;;4776454;29;11666;-91
2022/11/10 12:06:47;;;;;;;;;0.00;0.00;;;;;;;;4782119;29;11662;-91
2022/11/10 12:09:21;;;;;;;;;0.00;0.00;;;;;;;;4783560;29;8809;-93
2022/11/10 12:11:55;;;;;;;;;0.00;0.00;;;;;;;;4784610;29;11717;-92
2022/11/10 12:14:20;;;;;;;;;0.00;0.00;;;;;;;;4758062;29;11706;-93
2022/11/10 12:16:57;;;;;;;;;0.00;0.00;;;;;;;;4776854;29;11766;-92
2022/11/10 12:19:32;;;;;;;;;0.00;0.00;;;;;;;;4758672;29;10186;-92
2022/11/10 12:21:57;;;;;;;;;0.00;0.00;;;;;;;;4758610;29;11804;-94
2022/11/10 12:24:43;;;;;;;;;0.00;0.00;;;;;;;;4758378;29;11706;-94
2022/11/10 12:27:08;;;;;;;;;0.00;0.00;;;;;;;;4760703;29;8793;-93
2022/11/10 12:29:40;;;;;;;;;0.00;0.00;;;;;;;;4760060;29;11738;-96
2022/11/10 12:32:08;;;;;;;;;0.00;0.00;;;;;;;;4761924;29;8844;-94
2022/11/10 12:34:42;;;;;;;;;0.00;0.00;;;;;;;;4762705;29;11714;-96
2022/11/10 12:37:13;;;;;;;;;0.00;0.00;;;;;;;;4765463;30;11635;-96
2022/11/10 12:39:47;;;;;;;;;0.00;0.00;;;;;;;;4759530;29;11827;-96
2022/11/10 12:42:23;;;;;;;;;0.00;0.00;;;;;;;;4754913;29;11746;-90
2022/11/10 12:47:49;;;;;;;;;0.00;0.00;;;;;;;;4824239;24;12698;-93
2022/11/10 12:50:14;;;;;;;;;0.00;0.00;;;;;;;;4770886;29;11701;-93
2022/11/10 12:52:43;;;;;;;;;0.00;0.00;;;;;;;;4756875;29;8868;-92
2022/11/10 12:55:12;;;;;;;;;0.00;0.00;;;;;;;;4757784;30;8891;-96
2022/11/10 12:57:38;;;;;;;;;0.00;0.00;;;;;;;;4777592;29;11634;-96
2022/11/10 13:00:05;;;;;;;;;0.00;0.00;;;;;;;;4784593;29;11662;-96
2022/11/10 13:02:33;;;;;;;;;0.00;0.00;;;;;;;;4779969;29;8865;-95
2022/11/10 13:05:18;;;;;;;;;0.00;0.00;;;;;;;;4757424;29;11706;-95
2022/11/10 13:07:46;;;;;;;;;0.00;0.00;;;;;;;;4762469;29;11653;-96
2022/11/10 13:10:17;;;;;;;;;0.00;0.00;;;;;;;;4766276;29;11634;-95
2022/11/10 13:12:59;;;;;;;;;0.00;0.00;;;;;;;;4765480;29;8898;-96
2022/11/10 13:15:34;;;;;;;;;0.00;0.00;;;;;;;;4768282;29;11780;-95
2022/11/10 13:18:00;;;;;;;;;0.00;0.00;;;;;;;;4769042;29;11645;-96
2022/11/10 13:20:37;;;;;;;;;0.00;0.00;;;;;;;;4764982;30;11706;-96
2022/11/10 13:23:19;;;;;;;;;0.00;0.00;;;;;;;;4786712;29;8801;-96
2022/11/10 13:25:53;;;;;;;;;0.00;0.00;;;;;;;;4774103;29;11714;-96
2022/11/10 13:28:37;;;;;;;;;0.00;0.00;;;;;;;;4758562;30;11746;-96
2022/11/10 13:31:21;;;;;;;;;0.00;0.00;;;;;;;;4763154;29;11674;-96
2022/11/10 13:34:02;;;;;;;;;0.00;0.00;;;;;;;;4760874;30;11704;-96
2022/11/10 13:36:38;;;;;;;;;0.00;0.00;;;;;;;;4763132;29;11690;-96
2022/11/10 13:39:19;;;;;;;;;0.00;0.00;;;;;;;;4771573;29;11611;-96
2022/11/10 13:41:45;;;;;;;;;0.00;0.00;;;;;;;;4766503;30;11720;-96
2022/11/10 13:44:23;;;;;;;;;0.00;0.00;;;;;;;;4770460;29;11667;-96
2022/11/10 13:47:08;;;;;;;;;0.00;0.00;;;;;;;;4754477;30;11816;-96
2022/11/10 13:49:39;;;;;;;;;0.00;0.00;;;;;;;;4701745;30;11776;-96
2022/11/10 13:52:16;;;;;;;;;0.00;0.00;;;;;;;;4688418;30;11730;-96
2022/11/10 13:54:55;;;;;;;;;0.00;0.00;;;;;;;;4707391;30;11778;-96
2022/11/10 13:57:20;;;;;;;;;0.00;0.00;;;;;;;;4695181;30;11638;-96
2022/11/10 13:59:51;;;;;;;;;0.00;0.00;;;;;;;;4685547;30;11646;-96
2022/11/10 14:02:32;;;;;;;;;0.00;0.00;;;;;;;;4703482;30;9678;-96
2022/11/10 14:04:57;;;;;;;;;0.00;0.00;;;;;;;;4703957;30;11648;-96
2022/11/10 14:07:23;;;;;;;;;0.00;0.00;;;;;;;;4693983;30;11643;-96
2022/11/10 14:09:50;;;;;;;;;0.00;0.00;;;;;;;;4701934;30;8846;-96
2022/11/10 14:12:28;;;;;;;;;0.00;0.00;;;;;;;;4703223;30;11738;-96
2022/11/10 14:15:02;;;;;;;;;0.00;0.00;;;;;;;;4708980;30;11580;-96
2022/11/10 14:17:29;;;;;;;;;0.00;0.00;;;;;;;;4691555;30;11517;-96
2022/11/10 14:19:55;;;;;;;;;0.00;0.00;;;;;;;;4701682;30;11629;-96
2022/11/10 14:22:29;;;;;;;;;0.00;0.00;;;;;;;;4713540;30;11618;-96
2022/11/10 14:25:13;;;;;;;;;0.00;0.00;;;;;;;;4722679;30;9012;-96
2022/11/10 14:27:38;;;;;;;;;0.00;0.00;;;;;;;;4759672;29;11710;-96
2022/11/10 14:30:20;;;;;;;;;0.00;0.00;;;;;;;;4805362;29;11670;-96
2022/11/10 14:32:53;;;;;;;;;0.00;0.00;;;;;;;;4781897;29;8909;-96
2022/11/10 14:35:20;;;;;;;;;0.00;0.00;;;;;;;;4780241;30;11651;-95
2022/11/10 14:37:45;;;;;;;;;0.00;0.00;;;;;;;;4784525;29;11727;-96
2022/11/10 14:40:14;;;;;;;;;0.00;0.00;;;;;;;;4771160;30;11732;-96
2022/11/10 14:42:39;;;;;;;;;0.00;0.00;;;;;;;;4773406;29;8877;-96
2022/11/10 14:45:06;;;;;;;;;0.00;0.00;;;;;;;;4783792;29;11694;-96
2022/11/10 14:47:31;;;;;;;;;0.00;0.00;;;;;;;;4766877;30;8873;-96
2022/11/10 14:50:05;;;;;;;;;0.00;0.00;;;;;;;;4762552;30;11754;-96
2022/11/10 14:52:30;;;;;;;;;0.00;0.00;;;;;;;;4757183;30;8900;-96
2022/11/10 14:54:56;;;;;;;;;0.00;0.00;;;;;;;;4758396;30;11712;-96
2022/11/10 14:57:22;;;;;;;;;0.00;0.00;;;;;;;;4764781;30;8873;-96
2022/11/10 14:59:47;;;;;;;;;0.00;0.00;;;;;;;;4764227;30;8962;-96
2022/11/10 15:02:13;;;;;;;;;0.00;0.00;;;;;;;;4761504;30;8886;-96
2022/11/10 15:04:39;;;;;;;;;0.00;0.00;;;;;;;;4770486;30;8806;-96
2022/11/10 15:07:05;;;;;;;;;0.00;0.00;;;;;;;;4766040;30;11699;-96
2022/11/10 15:09:31;;;;;;;;;0.00;0.00;;;;;;;;4770295;30;8802;-96
2022/11/10 15:12:02;;;;;;;;;0.00;0.00;;;;;;;;4768241;30;8860;-96
2022/11/10 15:14:29;;;;;;;;;0.00;0.00;;;;;;;;4768126;30;8783;-96